sensor_id;sensor_type;location;lat;lon;timestamp;P1;durP1;ratioP1;P2;durP2;ratioP2
52208;SDS011;38507;53.132;6.394;2022-12-07T00:01:29;12.68;;;1.65;;
52208;SDS011;38507;53.132;6.394;2022-12-07T00:04:03;9.50;;;1.50;;
52208;SDS011;38507;53.132;6.394;2022-12-07T00:06:37;10.35;;;1.30;;
52208;SDS011;38507;53.132;6.394;2022-12-07T00:09:05;8.02;;;2.03;;
52208;SDS011;38507;53.132;6.394;2022-12-07T00:11:32;12.45;;;1.58;;
52208;SDS011;38507;53.132;6.394;2022-12-07T00:13:59;10.60;;;1.42;;
52208;SDS011;38507;53.132;6.394;2022-12-07T00:16:27;10.48;;;1.40;;
52208;SDS011;38507;53.132;6.394;2022-12-07T00:18:55;7.75;;;1.40;;
52208;SDS011;38507;53.132;6.394;2022-12-07T00:21:22;9.30;;;1.35;;
52208;SDS011;38507;53.132;6.394;2022-12-07T00:23:50;15.68;;;1.23;;
52208;SDS011;38507;53.132;6.394;2022-12-07T00:26:17;7.85;;;1.27;;
52208;SDS011;38507;53.132;6.394;2022-12-07T00:28:52;11.68;;;1.42;;
52208;SDS011;38507;53.132;6.394;2022-12-07T00:31:20;5.90;;;1.02;;
52208;SDS011;38507;53.132;6.394;2022-12-07T00:33:49;6.95;;;1.20;;
52208;SDS011;38507;53.132;6.394;2022-12-07T00:36:16;6.95;;;1.02;;
52208;SDS011;38507;53.132;6.394;2022-12-07T00:38:44;9.40;;;1.17;;
52208;SDS011;38507;53.132;6.394;2022-12-07T00:41:11;6.05;;;0.98;;
52208;SDS011;38507;53.132;6.394;2022-12-07T00:43:38;8.60;;;1.20;;
52208;SDS011;38507;53.132;6.394;2022-12-07T00:46:05;10.27;;;1.20;;
52208;SDS011;38507;53.132;6.394;2022-12-07T00:48:31;9.13;;;1.00;;
52208;SDS011;38507;53.132;6.394;2022-12-07T00:50:56;10.73;;;0.90;;
52208;SDS011;38507;53.132;6.394;2022-12-07T00:53:22;12.45;;;1.15;;
52208;SDS011;38507;53.132;6.394;2022-12-07T00:55:48;9.10;;;0.88;;
52208;SDS011;38507;53.132;6.394;2022-12-07T00:58:14;5.88;;;0.85;;
52208;SDS011;38507;53.132;6.394;2022-12-07T01:00:40;6.85;;;1.40;;
52208;SDS011;38507;53.132;6.394;2022-12-07T01:03:07;11.90;;;1.58;;
52208;SDS011;38507;53.132;6.394;2022-12-07T01:05:34;5.57;;;0.90;;
52208;SDS011;38507;53.132;6.394;2022-12-07T01:08:00;9.73;;;1.42;;
52208;SDS011;38507;53.132;6.394;2022-12-07T01:10:27;7.72;;;1.00;;
52208;SDS011;38507;53.132;6.394;2022-12-07T01:12:55;5.43;;;0.85;;
52208;SDS011;38507;53.132;6.394;2022-12-07T01:15:20;10.25;;;1.00;;
52208;SDS011;38507;53.132;6.394;2022-12-07T01:17:46;6.93;;;0.80;;
52208;SDS011;38507;53.132;6.394;2022-12-07T01:20:12;5.30;;;1.00;;
52208;SDS011;38507;53.132;6.394;2022-12-07T01:22:41;9.90;;;0.95;;
52208;SDS011;38507;53.132;6.394;2022-12-07T01:25:08;8.85;;;1.30;;
52208;SDS011;38507;53.132;6.394;2022-12-07T01:27:36;13.57;;;1.10;;
52208;SDS011;38507;53.132;6.394;2022-12-07T01:30:03;9.65;;;1.00;;
52208;SDS011;38507;53.132;6.394;2022-12-07T01:32:31;10.52;;;1.25;;
52208;SDS011;38507;53.132;6.394;2022-12-07T01:34:57;10.68;;;1.10;;
52208;SDS011;38507;53.132;6.394;2022-12-07T01:37:23;12.32;;;1.30;;
52208;SDS011;38507;53.132;6.394;2022-12-07T01:39:49;12.48;;;1.30;;
52208;SDS011;38507;53.132;6.394;2022-12-07T01:42:17;10.20;;;1.63;;
52208;SDS011;38507;53.132;6.394;2022-12-07T01:47:43;13.95;;;1.75;;
52208;SDS011;38507;53.132;6.394;2022-12-07T01:50:14;7.18;;;1.15;;
52208;SDS011;38507;53.132;6.394;2022-12-07T01:52:40;12.02;;;1.35;;
52208;SDS011;38507;53.132;6.394;2022-12-07T01:55:09;7.45;;;1.23;;
52208;SDS011;38507;53.132;6.394;2022-12-07T01:57:39;12.05;;;1.10;;
52208;SDS011;38507;53.132;6.394;2022-12-07T02:00:12;8.93;;;1.10;;
52208;SDS011;38507;53.132;6.394;2022-12-07T02:02:58;10.02;;;1.55;;
52208;SDS011;38507;53.132;6.394;2022-12-07T02:05:31;10.35;;;1.00;;
52208;SDS011;38507;53.132;6.394;2022-12-07T02:07:58;5.85;;;0.73;;
52208;SDS011;38507;53.132;6.394;2022-12-07T02:10:25;10.75;;;1.20;;
52208;SDS011;38507;53.132;6.394;2022-12-07T02:12:55;8.45;;;1.30;;
52208;SDS011;38507;53.132;6.394;2022-12-07T02:15:30;10.35;;;1.15;;
52208;SDS011;38507;53.132;6.394;2022-12-07T02:18:41;13.02;;;1.52;;
52208;SDS011;38507;53.132;6.394;2022-12-07T02:23:56;6.93;;;1.10;;
52208;SDS011;38507;53.132;6.394;2022-12-07T02:29:33;14.35;;;1.83;;
52208;SDS011;38507;53.132;6.394;2022-12-07T02:34:58;6.88;;;0.80;;
52208;SDS011;38507;53.132;6.394;2022-12-07T02:40:46;10.18;;;0.98;;
52208;SDS011;38507;53.132;6.394;2022-12-07T02:43:23;7.53;;;0.90;;
52208;SDS011;38507;53.132;6.394;2022-12-07T02:46:01;15.15;;;0.80;;
52208;SDS011;38507;53.132;6.394;2022-12-07T02:48:36;10.77;;;1.20;;
52208;SDS011;38507;53.132;6.394;2022-12-07T02:51:03;5.20;;;0.95;;
52208;SDS011;38507;53.132;6.394;2022-12-07T02:55:59;14.27;;;1.67;;
52208;SDS011;38507;53.132;6.394;2022-12-07T02:58:44;8.43;;;1.25;;
52208;SDS011;38507;53.132;6.394;2022-12-07T03:03:41;11.52;;;1.50;;
52208;SDS011;38507;53.132;6.394;2022-12-07T03:06:20;8.82;;;0.85;;
52208;SDS011;38507;53.132;6.394;2022-12-07T03:08:58;7.07;;;1.20;;
52208;SDS011;38507;53.132;6.394;2022-12-07T03:14:17;9.02;;;1.10;;
52208;SDS011;38507;53.132;6.394;2022-12-07T03:16:52;7.38;;;1.10;;
52208;SDS011;38507;53.132;6.394;2022-12-07T03:19:23;7.45;;;0.98;;
52208;SDS011;38507;53.132;6.394;2022-12-07T03:22:03;11.35;;;1.10;;
52208;SDS011;38507;53.132;6.394;2022-12-07T03:24:35;8.88;;;1.20;;
52208;SDS011;38507;53.132;6.394;2022-12-07T03:27:08;6.07;;;0.93;;
52208;SDS011;38507;53.132;6.394;2022-12-07T03:29:43;4.45;;;0.98;;
52208;SDS011;38507;53.132;6.394;2022-12-07T03:32:14;12.20;;;1.17;;
52208;SDS011;38507;53.132;6.394;2022-12-07T03:35:00;10.98;;;1.05;;
52208;SDS011;38507;53.132;6.394;2022-12-07T03:40:19;7.63;;;1.00;;
52208;SDS011;38507;53.132;6.394;2022-12-07T03:43:00;11.68;;;1.15;;
52208;SDS011;38507;53.132;6.394;2022-12-07T03:46:00;12.43;;;1.25;;
52208;SDS011;38507;53.132;6.394;2022-12-07T03:48:26;15.55;;;1.60;;
52208;SDS011;38507;53.132;6.394;2022-12-07T03:53:34;10.70;;;1.13;;
52208;SDS011;38507;53.132;6.394;2022-12-07T03:56:30;10.85;;;1.20;;
52208;SDS011;38507;53.132;6.394;2022-12-07T03:58:57;11.02;;;1.30;;
52208;SDS011;38507;53.132;6.394;2022-12-07T04:01:24;8.35;;;1.02;;
52208;SDS011;38507;53.132;6.394;2022-12-07T04:03:50;12.10;;;1.23;;
52208;SDS011;38507;53.132;6.394;2022-12-07T04:06:15;8.20;;;1.13;;
52208;SDS011;38507;53.132;6.394;2022-12-07T04:08:41;8.35;;;1.10;;
52208;SDS011;38507;53.132;6.394;2022-12-07T04:11:06;11.60;;;1.15;;
52208;SDS011;38507;53.132;6.394;2022-12-07T04:13:32;9.43;;;0.95;;
52208;SDS011;38507;53.132;6.394;2022-12-07T04:16:18;8.98;;;1.00;;
52208;SDS011;38507;53.132;6.394;2022-12-07T04:18:43;12.70;;;1.25;;
52208;SDS011;38507;53.132;6.394;2022-12-07T04:21:09;12.70;;;1.38;;
52208;SDS011;38507;53.132;6.394;2022-12-07T04:23:34;11.43;;;1.10;;
52208;SDS011;38507;53.132;6.394;2022-12-07T04:26:00;6.72;;;0.93;;
52208;SDS011;38507;53.132;6.394;2022-12-07T04:28:25;11.15;;;1.15;;
52208;SDS011;38507;53.132;6.394;2022-12-07T04:30:51;5.55;;;0.90;;
52208;SDS011;38507;53.132;6.394;2022-12-07T04:33:17;13.93;;;1.13;;
52208;SDS011;38507;53.132;6.394;2022-12-07T04:35:42;7.57;;;0.90;;
52208;SDS011;38507;53.132;6.394;2022-12-07T04:38:08;6.68;;;0.70;;
52208;SDS011;38507;53.132;6.394;2022-12-07T04:40:34;9.85;;;0.95;;
52208;SDS011;38507;53.132;6.394;2022-12-07T04:42:59;7.55;;;0.95;;
52208;SDS011;38507;53.132;6.394;2022-12-07T04:45:25;7.65;;;0.80;;
52208;SDS011;38507;53.132;6.394;2022-12-07T04:47:51;6.10;;;0.93;;
52208;SDS011;38507;53.132;6.394;2022-12-07T04:50:16;9.20;;;0.82;;
52208;SDS011;38507;53.132;6.394;2022-12-07T04:52:42;9.57;;;1.05;;
52208;SDS011;38507;53.132;6.394;2022-12-07T04:55:07;9.05;;;1.13;;
52208;SDS011;38507;53.132;6.394;2022-12-07T04:57:33;4.93;;;0.60;;
52208;SDS011;38507;53.132;6.394;2022-12-07T04:59:59;8.85;;;0.68;;
52208;SDS011;38507;53.132;6.394;2022-12-07T05:02:25;11.10;;;1.00;;
52208;SDS011;38507;53.132;6.394;2022-12-07T05:04:50;4.38;;;0.70;;
52208;SDS011;38507;53.132;6.394;2022-12-07T05:07:16;4.03;;;0.80;;
52208;SDS011;38507;53.132;6.394;2022-12-07T05:09:42;6.28;;;0.90;;
52208;SDS011;38507;53.132;6.394;2022-12-07T05:12:07;8.82;;;0.80;;
52208;SDS011;38507;53.132;6.394;2022-12-07T05:14:33;10.13;;;1.58;;
52208;SDS011;38507;53.132;6.394;2022-12-07T05:16:59;11.00;;;1.00;;
52208;SDS011;38507;53.132;6.394;2022-12-07T05:19:24;13.20;;;0.90;;
52208;SDS011;38507;53.132;6.394;2022-12-07T05:21:51;7.75;;;1.95;;
52208;SDS011;38507;53.132;6.394;2022-12-07T05:24:17;12.98;;;2.58;;
52208;SDS011;38507;53.132;6.394;2022-12-07T05:26:43;6.55;;;1.73;;
52208;SDS011;38507;53.132;6.394;2022-12-07T05:29:10;8.05;;;0.80;;
52208;SDS011;38507;53.132;6.394;2022-12-07T05:31:38;6.10;;;1.05;;
52208;SDS011;38507;53.132;6.394;2022-12-07T05:34:04;3.97;;;0.80;;
52208;SDS011;38507;53.132;6.394;2022-12-07T05:36:29;8.63;;;1.10;;
52208;SDS011;38507;53.132;6.394;2022-12-07T05:38:56;7.57;;;1.45;;
52208;SDS011;38507;53.132;6.394;2022-12-07T05:41:22;9.80;;;1.10;;
52208;SDS011;38507;53.132;6.394;2022-12-07T05:44:06;6.90;;;1.20;;
52208;SDS011;38507;53.132;6.394;2022-12-07T05:46:32;6.25;;;1.23;;
52208;SDS011;38507;53.132;6.394;2022-12-07T05:48:58;9.57;;;1.33;;
52208;SDS011;38507;53.132;6.394;2022-12-07T05:51:24;12.35;;;1.45;;
52208;SDS011;38507;53.132;6.394;2022-12-07T05:53:49;10.30;;;1.08;;
52208;SDS011;38507;53.132;6.394;2022-12-07T05:56:15;16.05;;;1.40;;
52208;SDS011;38507;53.132;6.394;2022-12-07T05:58:41;9.02;;;1.45;;
52208;SDS011;38507;53.132;6.394;2022-12-07T06:01:25;12.20;;;1.52;;
52208;SDS011;38507;53.132;6.394;2022-12-07T06:03:51;6.05;;;1.10;;
52208;SDS011;38507;53.132;6.394;2022-12-07T06:06:16;8.85;;;1.33;;
52208;SDS011;38507;53.132;6.394;2022-12-07T06:08:42;16.83;;;1.05;;
52208;SDS011;38507;53.132;6.394;2022-12-07T06:11:08;8.13;;;1.08;;
52208;SDS011;38507;53.132;6.394;2022-12-07T06:13:52;6.20;;;1.20;;
52208;SDS011;38507;53.132;6.394;2022-12-07T06:16:18;12.82;;;1.05;;
52208;SDS011;38507;53.132;6.394;2022-12-07T06:18:43;7.68;;;1.02;;
52208;SDS011;38507;53.132;6.394;2022-12-07T06:21:09;10.05;;;0.90;;
52208;SDS011;38507;53.132;6.394;2022-12-07T06:23:34;6.32;;;0.90;;
52208;SDS011;38507;53.132;6.394;2022-12-07T06:26:00;3.83;;;0.60;;
52208;SDS011;38507;53.132;6.394;2022-12-07T06:28:25;5.63;;;0.70;;
52208;SDS011;38507;53.132;6.394;2022-12-07T06:30:58;7.38;;;1.00;;
52208;SDS011;38507;53.132;6.394;2022-12-07T06:33:24;10.25;;;1.20;;
52208;SDS011;38507;53.132;6.394;2022-12-07T06:35:50;4.88;;;1.10;;
52208;SDS011;38507;53.132;6.394;2022-12-07T06:38:16;12.60;;;1.38;;
52208;SDS011;38507;53.132;6.394;2022-12-07T06:40:42;3.55;;;1.05;;
52208;SDS011;38507;53.132;6.394;2022-12-07T06:43:07;8.43;;;0.82;;
52208;SDS011;38507;53.132;6.394;2022-12-07T06:45:33;3.92;;;1.05;;
52208;SDS011;38507;53.132;6.394;2022-12-07T06:47:58;7.75;;;0.95;;
52208;SDS011;38507;53.132;6.394;2022-12-07T06:50:24;10.38;;;0.90;;
52208;SDS011;38507;53.132;6.394;2022-12-07T06:52:50;8.52;;;0.90;;
52208;SDS011;38507;53.132;6.394;2022-12-07T06:55:16;12.43;;;1.20;;
52208;SDS011;38507;53.132;6.394;2022-12-07T06:57:41;5.57;;;0.85;;
52208;SDS011;38507;53.132;6.394;2022-12-07T07:00:07;6.20;;;0.80;;
52208;SDS011;38507;53.132;6.394;2022-12-07T07:02:33;7.18;;;0.90;;
52208;SDS011;38507;53.132;6.394;2022-12-07T07:04:59;7.85;;;1.02;;
52208;SDS011;38507;53.132;6.394;2022-12-07T07:07:25;4.90;;;0.90;;
52208;SDS011;38507;53.132;6.394;2022-12-07T07:09:50;5.20;;;0.80;;
52208;SDS011;38507;53.132;6.394;2022-12-07T07:12:16;4.10;;;0.85;;
52208;SDS011;38507;53.132;6.394;2022-12-07T07:14:41;8.75;;;1.30;;
52208;SDS011;38507;53.132;6.394;2022-12-07T07:17:08;5.95;;;0.90;;
52208;SDS011;38507;53.132;6.394;2022-12-07T07:19:34;7.68;;;1.15;;
52208;SDS011;38507;53.132;6.394;2022-12-07T07:21:59;8.20;;;1.30;;
52208;SDS011;38507;53.132;6.394;2022-12-07T07:24:25;6.68;;;1.05;;
52208;SDS011;38507;53.132;6.394;2022-12-07T07:26:51;6.60;;;0.90;;
52208;SDS011;38507;53.132;6.394;2022-12-07T07:29:16;9.88;;;1.20;;
52208;SDS011;38507;53.132;6.394;2022-12-07T07:31:42;6.93;;;0.70;;
52208;SDS011;38507;53.132;6.394;2022-12-07T07:34:08;9.80;;;1.08;;
52208;SDS011;38507;53.132;6.394;2022-12-07T07:36:33;6.05;;;1.00;;
52208;SDS011;38507;53.132;6.394;2022-12-07T07:38:59;9.48;;;1.58;;
52208;SDS011;38507;53.132;6.394;2022-12-07T07:41:24;4.45;;;0.85;;
52208;SDS011;38507;53.132;6.394;2022-12-07T07:43:50;7.38;;;1.20;;
52208;SDS011;38507;53.132;6.394;2022-12-07T07:46:16;9.50;;;1.20;;
52208;SDS011;38507;53.132;6.394;2022-12-07T07:48:41;8.38;;;1.15;;
52208;SDS011;38507;53.132;6.394;2022-12-07T07:51:07;8.82;;;1.42;;
52208;SDS011;38507;53.132;6.394;2022-12-07T07:53:33;9.75;;;1.33;;
52208;SDS011;38507;53.132;6.394;2022-12-07T07:55:59;11.63;;;1.58;;
52208;SDS011;38507;53.132;6.394;2022-12-07T07:58:25;8.32;;;1.50;;
52208;SDS011;38507;53.132;6.394;2022-12-07T08:00:50;14.10;;;1.88;;
52208;SDS011;38507;53.132;6.394;2022-12-07T08:03:16;6.60;;;1.38;;
52208;SDS011;38507;53.132;6.394;2022-12-07T08:05:42;10.10;;;2.17;;
52208;SDS011;38507;53.132;6.394;2022-12-07T08:08:08;11.63;;;1.83;;
52208;SDS011;38507;53.132;6.394;2022-12-07T08:10:33;11.88;;;1.52;;
52208;SDS011;38507;53.132;6.394;2022-12-07T08:13:00;13.48;;;1.67;;
52208;SDS011;38507;53.132;6.394;2022-12-07T08:15:44;13.50;;;1.90;;
52208;SDS011;38507;53.132;6.394;2022-12-07T08:18:12;11.18;;;1.60;;
52208;SDS011;38507;53.132;6.394;2022-12-07T08:20:38;11.45;;;2.08;;
52208;SDS011;38507;53.132;6.394;2022-12-07T08:23:05;11.98;;;1.80;;
52208;SDS011;38507;53.132;6.394;2022-12-07T08:25:31;8.45;;;1.40;;
52208;SDS011;38507;53.132;6.394;2022-12-07T08:27:57;16.27;;;2.17;;
52208;SDS011;38507;53.132;6.394;2022-12-07T08:30:23;7.07;;;2.13;;
52208;SDS011;38507;53.132;6.394;2022-12-07T08:32:49;9.18;;;2.00;;
52208;SDS011;38507;53.132;6.394;2022-12-07T08:35:15;15.60;;;2.20;;
52208;SDS011;38507;53.132;6.394;2022-12-07T08:37:41;11.55;;;1.50;;
52208;SDS011;38507;53.132;6.394;2022-12-07T08:40:07;16.17;;;1.73;;
52208;SDS011;38507;53.132;6.394;2022-12-07T08:42:34;10.63;;;1.35;;
52208;SDS011;38507;53.132;6.394;2022-12-07T08:45:08;12.27;;;1.67;;
52208;SDS011;38507;53.132;6.394;2022-12-07T08:47:37;8.95;;;1.35;;
52208;SDS011;38507;53.132;6.394;2022-12-07T08:50:06;12.20;;;1.80;;
52208;SDS011;38507;53.132;6.394;2022-12-07T08:52:33;16.88;;;2.08;;
52208;SDS011;38507;53.132;6.394;2022-12-07T08:55:00;14.57;;;1.80;;
52208;SDS011;38507;53.132;6.394;2022-12-07T08:57:28;13.77;;;1.60;;
52208;SDS011;38507;53.132;6.394;2022-12-07T08:59:54;14.02;;;1.30;;
52208;SDS011;38507;53.132;6.394;2022-12-07T09:02:20;16.33;;;1.58;;
52208;SDS011;38507;53.132;6.394;2022-12-07T09:04:46;14.98;;;2.05;;
52208;SDS011;38507;53.132;6.394;2022-12-07T09:07:11;13.50;;;1.77;;
52208;SDS011;38507;53.132;6.394;2022-12-07T09:09:37;13.38;;;2.22;;
52208;SDS011;38507;53.132;6.394;2022-12-07T09:12:03;10.98;;;2.15;;
52208;SDS011;38507;53.132;6.394;2022-12-07T09:14:29;22.23;;;3.33;;
52208;SDS011;38507;53.132;6.394;2022-12-07T09:16:54;15.32;;;2.40;;
52208;SDS011;38507;53.132;6.394;2022-12-07T09:19:20;12.70;;;2.30;;
52208;SDS011;38507;53.132;6.394;2022-12-07T09:21:45;14.65;;;2.20;;
52208;SDS011;38507;53.132;6.394;2022-12-07T09:24:12;14.57;;;1.90;;
52208;SDS011;38507;53.132;6.394;2022-12-07T09:26:38;13.85;;;1.85;;
52208;SDS011;38507;53.132;6.394;2022-12-07T09:29:05;19.55;;;1.67;;
52208;SDS011;38507;53.132;6.394;2022-12-07T09:31:31;16.05;;;1.98;;
52208;SDS011;38507;53.132;6.394;2022-12-07T09:34:00;7.88;;;1.90;;
52208;SDS011;38507;53.132;6.394;2022-12-07T09:36:26;12.20;;;1.65;;
52208;SDS011;38507;53.132;6.394;2022-12-07T09:38:53;14.45;;;1.88;;
52208;SDS011;38507;53.132;6.394;2022-12-07T09:41:19;15.35;;;1.70;;
52208;SDS011;38507;53.132;6.394;2022-12-07T09:43:46;13.85;;;2.00;;
52208;SDS011;38507;53.132;6.394;2022-12-07T09:46:13;10.45;;;1.48;;
52208;SDS011;38507;53.132;6.394;2022-12-07T09:48:42;11.80;;;1.70;;
52208;SDS011;38507;53.132;6.394;2022-12-07T09:51:14;12.80;;;1.88;;
52208;SDS011;38507;53.132;6.394;2022-12-07T09:53:40;8.80;;;1.45;;
52208;SDS011;38507;53.132;6.394;2022-12-07T09:56:08;7.55;;;1.23;;
52208;SDS011;38507;53.132;6.394;2022-12-07T09:58:38;5.57;;;1.10;;
52208;SDS011;38507;53.132;6.394;2022-12-07T10:03:32;11.90;;;1.80;;
52208;SDS011;38507;53.132;6.394;2022-12-07T10:05:59;8.35;;;1.33;;
52208;SDS011;38507;53.132;6.394;2022-12-07T10:08:25;10.15;;;1.85;;
52208;SDS011;38507;53.132;6.394;2022-12-07T10:10:52;9.68;;;1.63;;
52208;SDS011;38507;53.132;6.394;2022-12-07T10:13:23;7.75;;;1.75;;
52208;SDS011;38507;53.132;6.394;2022-12-07T10:16:00;7.60;;;1.27;;
52208;SDS011;38507;53.132;6.394;2022-12-07T10:21:11;10.05;;;2.00;;
52208;SDS011;38507;53.132;6.394;2022-12-07T10:23:42;8.40;;;1.70;;
52208;SDS011;38507;53.132;6.394;2022-12-07T10:26:34;9.82;;;1.52;;
52208;SDS011;38507;53.132;6.394;2022-12-07T10:29:17;12.75;;;1.70;;
52208;SDS011;38507;53.132;6.394;2022-12-07T10:34:41;7.65;;;1.45;;
52208;SDS011;38507;53.132;6.394;2022-12-07T10:39:40;7.90;;;1.40;;
52208;SDS011;38507;53.132;6.394;2022-12-07T10:42:21;12.32;;;1.70;;
52208;SDS011;38507;53.132;6.394;2022-12-07T10:44:49;13.20;;;1.77;;
52208;SDS011;38507;53.132;6.394;2022-12-07T10:52:58;7.10;;;1.20;;
52208;SDS011;38507;53.132;6.394;2022-12-07T10:58:04;12.20;;;1.23;;
52208;SDS011;38507;53.132;6.394;2022-12-07T11:00:58;8.52;;;1.20;;
52208;SDS011;38507;53.132;6.394;2022-12-07T11:03:51;7.85;;;1.23;;
52208;SDS011;38507;53.132;6.394;2022-12-07T11:31:22;7.82;;;0.70;;
52208;SDS011;38507;53.132;6.394;2022-12-07T11:34:15;5.55;;;0.85;;
52208;SDS011;38507;53.132;6.394;2022-12-07T11:36:52;7.10;;;1.17;;
52208;SDS011;38507;53.132;6.394;2022-12-07T11:41:56;10.23;;;1.48;;
52208;SDS011;38507;53.132;6.394;2022-12-07T11:50:16;5.72;;;0.90;;
52208;SDS011;38507;53.132;6.394;2022-12-07T11:55:26;7.28;;;0.90;;
52208;SDS011;38507;53.132;6.394;2022-12-07T11:58:20;6.43;;;0.80;;
52208;SDS011;38507;53.132;6.394;2022-12-07T12:00:51;6.25;;;0.80;;
52208;SDS011;38507;53.132;6.394;2022-12-07T12:03:38;3.88;;;0.88;;
52208;SDS011;38507;53.132;6.394;2022-12-07T12:06:09;7.97;;;0.73;;
52208;SDS011;38507;53.132;6.394;2022-12-07T12:22:27;9.13;;;0.93;;
52208;SDS011;38507;53.132;6.394;2022-12-07T12:25:05;8.70;;;0.80;;
52208;SDS011;38507;53.132;6.394;2022-12-07T12:27:37;6.68;;;0.95;;
52208;SDS011;38507;53.132;6.394;2022-12-07T12:30:05;4.63;;;0.70;;
52208;SDS011;38507;53.132;6.394;2022-12-07T12:32:48;6.07;;;0.90;;
52208;SDS011;38507;53.132;6.394;2022-12-07T12:35:20;3.58;;;0.60;;
52208;SDS011;38507;53.132;6.394;2022-12-07T12:37:52;3.90;;;0.68;;
52208;SDS011;38507;53.132;6.394;2022-12-07T12:42:56;10.20;;;0.70;;
52208;SDS011;38507;53.132;6.394;2022-12-07T12:45:29;2.35;;;0.40;;
52208;SDS011;38507;53.132;6.394;2022-12-07T12:50:30;6.55;;;0.50;;
52208;SDS011;38507;53.132;6.394;2022-12-07T12:53:01;2.30;;;0.40;;
52208;SDS011;38507;53.132;6.394;2022-12-07T13:00:49;5.90;;;0.73;;
52208;SDS011;38507;53.132;6.394;2022-12-07T13:03:55;6.20;;;0.70;;
52208;SDS011;38507;53.132;6.394;2022-12-07T13:08:52;6.75;;;0.73;;
52208;SDS011;38507;53.132;6.394;2022-12-07T13:20:01;5.65;;;0.65;;
52208;SDS011;38507;53.132;6.394;2022-12-07T13:25:06;4.15;;;1.10;;
52208;SDS011;38507;53.132;6.394;2022-12-07T13:27:47;6.53;;;0.75;;
52208;SDS011;38507;53.132;6.394;2022-12-07T13:30:20;5.45;;;0.60;;
52208;SDS011;38507;53.132;6.394;2022-12-07T13:32:57;2.90;;;0.52;;
52208;SDS011;38507;53.132;6.394;2022-12-07T13:35:30;5.32;;;0.82;;
52208;SDS011;38507;53.132;6.394;2022-12-07T13:37:58;6.07;;;0.88;;
52208;SDS011;38507;53.132;6.394;2022-12-07T13:40:27;4.85;;;0.80;;
52208;SDS011;38507;53.132;6.394;2022-12-07T13:43:00;6.88;;;1.02;;
52208;SDS011;38507;53.132;6.394;2022-12-07T13:45:31;6.10;;;1.25;;
52208;SDS011;38507;53.132;6.394;2022-12-07T13:48:30;8.60;;;1.10;;
52208;SDS011;38507;53.132;6.394;2022-12-07T13:50:58;4.57;;;1.02;;
52208;SDS011;38507;53.132;6.394;2022-12-07T13:53:26;5.07;;;1.25;;
52208;SDS011;38507;53.132;6.394;2022-12-07T13:55:55;5.80;;;1.02;;
52208;SDS011;38507;53.132;6.394;2022-12-07T13:58:22;3.60;;;1.20;;
52208;SDS011;38507;53.132;6.394;2022-12-07T14:00:48;6.72;;;1.00;;
52208;SDS011;38507;53.132;6.394;2022-12-07T14:05:41;8.88;;;1.00;;
52208;SDS011;38507;53.132;6.394;2022-12-07T14:10:37;5.53;;;0.95;;
52208;SDS011;38507;53.132;6.394;2022-12-07T14:15:59;5.32;;;1.23;;
52208;SDS011;38507;53.132;6.394;2022-12-07T14:18:36;3.42;;;0.90;;
52208;SDS011;38507;53.132;6.394;2022-12-07T14:21:04;4.82;;;0.77;;
52208;SDS011;38507;53.132;6.394;2022-12-07T14:23:40;5.38;;;1.13;;
52208;SDS011;38507;53.132;6.394;2022-12-07T14:26:11;5.72;;;0.93;;
52208;SDS011;38507;53.132;6.394;2022-12-07T14:28:41;7.63;;;1.02;;
52208;SDS011;38507;53.132;6.394;2022-12-07T14:31:12;14.32;;;1.50;;
52208;SDS011;38507;53.132;6.394;2022-12-07T14:33:39;4.85;;;0.88;;
52208;SDS011;38507;53.132;6.394;2022-12-07T14:36:08;7.65;;;1.63;;
52208;SDS011;38507;53.132;6.394;2022-12-07T14:38:34;6.25;;;0.82;;
52208;SDS011;38507;53.132;6.394;2022-12-07T14:41:00;5.05;;;1.00;;
52208;SDS011;38507;53.132;6.394;2022-12-07T14:43:44;4.22;;;0.98;;
52208;SDS011;38507;53.132;6.394;2022-12-07T14:46:10;10.32;;;0.80;;
52208;SDS011;38507;53.132;6.394;2022-12-07T14:48:35;6.43;;;1.60;;
52208;SDS011;38507;53.132;6.394;2022-12-07T14:51:01;4.70;;;0.90;;
52208;SDS011;38507;53.132;6.394;2022-12-07T14:53:29;4.22;;;0.70;;
52208;SDS011;38507;53.132;6.394;2022-12-07T14:55:59;8.65;;;0.82;;
52208;SDS011;38507;53.132;6.394;2022-12-07T14:58:25;6.60;;;0.60;;
52208;SDS011;38507;53.132;6.394;2022-12-07T15:00:51;4.82;;;0.63;;
52208;SDS011;38507;53.132;6.394;2022-12-07T15:03:16;4.90;;;0.68;;
52208;SDS011;38507;53.132;6.394;2022-12-07T15:05:42;2.78;;;0.63;;
52208;SDS011;38507;53.132;6.394;2022-12-07T15:08:11;6.18;;;0.80;;
52208;SDS011;38507;53.132;6.394;2022-12-07T15:10:37;5.30;;;0.73;;
52208;SDS011;38507;53.132;6.394;2022-12-07T15:13:05;5.00;;;0.70;;
52208;SDS011;38507;53.132;6.394;2022-12-07T15:15:50;5.55;;;0.70;;
52208;SDS011;38507;53.132;6.394;2022-12-07T15:18:17;3.67;;;0.47;;
52208;SDS011;38507;53.132;6.394;2022-12-07T15:20:44;3.22;;;0.52;;
52208;SDS011;38507;53.132;6.394;2022-12-07T15:23:10;1.70;;;0.50;;
52208;SDS011;38507;53.132;6.394;2022-12-07T15:25:36;6.88;;;1.05;;
52208;SDS011;38507;53.132;6.394;2022-12-07T15:28:01;3.58;;;0.65;;
52208;SDS011;38507;53.132;6.394;2022-12-07T15:30:27;3.22;;;1.00;;
52208;SDS011;38507;53.132;6.394;2022-12-07T15:32:53;5.25;;;1.40;;
52208;SDS011;38507;53.132;6.394;2022-12-07T15:35:19;3.25;;;1.40;;
52208;SDS011;38507;53.132;6.394;2022-12-07T15:37:46;3.95;;;0.88;;
52208;SDS011;38507;53.132;6.394;2022-12-07T15:40:12;10.15;;;1.15;;
52208;SDS011;38507;53.132;6.394;2022-12-07T15:42:39;5.03;;;1.10;;
52208;SDS011;38507;53.132;6.394;2022-12-07T15:45:05;6.20;;;1.33;;
52208;SDS011;38507;53.132;6.394;2022-12-07T15:47:33;9.52;;;1.35;;
52208;SDS011;38507;53.132;6.394;2022-12-07T15:50:02;4.00;;;1.00;;
52208;SDS011;38507;53.132;6.394;2022-12-07T15:52:29;9.30;;;1.20;;
52208;SDS011;38507;53.132;6.394;2022-12-07T15:54:55;2.42;;;0.80;;
52208;SDS011;38507;53.132;6.394;2022-12-07T15:57:20;6.32;;;1.30;;
52208;SDS011;38507;53.132;6.394;2022-12-07T15:59:46;7.10;;;1.05;;
52208;SDS011;38507;53.132;6.394;2022-12-07T16:02:12;5.47;;;1.35;;
52208;SDS011;38507;53.132;6.394;2022-12-07T16:04:38;4.15;;;1.42;;
52208;SDS011;38507;53.132;6.394;2022-12-07T16:07:03;10.75;;;1.00;;
52208;SDS011;38507;53.132;6.394;2022-12-07T16:09:29;4.10;;;1.02;;
52208;SDS011;38507;53.132;6.394;2022-12-07T16:11:55;3.70;;;1.23;;
52208;SDS011;38507;53.132;6.394;2022-12-07T16:14:21;5.55;;;1.27;;
52208;SDS011;38507;53.132;6.394;2022-12-07T16:16:47;8.25;;;1.17;;
52208;SDS011;38507;53.132;6.394;2022-12-07T16:19:13;4.55;;;1.27;;
52208;SDS011;38507;53.132;6.394;2022-12-07T16:21:38;5.25;;;1.50;;
52208;SDS011;38507;53.132;6.394;2022-12-07T16:24:05;3.50;;;0.98;;
52208;SDS011;38507;53.132;6.394;2022-12-07T16:26:31;6.90;;;1.58;;
52208;SDS011;38507;53.132;6.394;2022-12-07T16:28:57;5.40;;;1.23;;
52208;SDS011;38507;53.132;6.394;2022-12-07T16:31:23;5.95;;;1.35;;
52208;SDS011;38507;53.132;6.394;2022-12-07T16:33:52;4.85;;;1.30;;
52208;SDS011;38507;53.132;6.394;2022-12-07T16:36:19;5.65;;;1.10;;
52208;SDS011;38507;53.132;6.394;2022-12-07T16:38:47;4.78;;;1.23;;
52208;SDS011;38507;53.132;6.394;2022-12-07T16:41:13;3.60;;;1.02;;
52208;SDS011;38507;53.132;6.394;2022-12-07T16:43:39;8.05;;;1.65;;
52208;SDS011;38507;53.132;6.394;2022-12-07T16:46:05;9.07;;;1.90;;
52208;SDS011;38507;53.132;6.394;2022-12-07T16:48:31;5.22;;;1.90;;
52208;SDS011;38507;53.132;6.394;2022-12-07T16:51:02;7.47;;;1.17;;
52208;SDS011;38507;53.132;6.394;2022-12-07T16:53:28;6.43;;;1.27;;
52208;SDS011;38507;53.132;6.394;2022-12-07T16:55:54;4.53;;;1.10;;
52208;SDS011;38507;53.132;6.394;2022-12-07T16:58:20;6.65;;;0.88;;
52208;SDS011;38507;53.132;6.394;2022-12-07T17:00:45;3.85;;;0.80;;
52208;SDS011;38507;53.132;6.394;2022-12-07T17:03:11;4.82;;;0.80;;